createdAt,value
2022-11-21T00:00:42.580Z,100.00
2022-11-21T00:03:10.714Z,100.00
2022-11-21T00:05:42.978Z,100.00
2022-11-21T00:08:11.483Z,100.00
2022-11-21T00:10:39.507Z,100.00
2022-11-21T00:13:07.459Z,100.00
2022-11-21T00:15:35.784Z,100.00
2022-11-21T00:18:03.842Z,100.00
2022-11-21T00:20:31.103Z,100.00
2022-11-21T00:22:57.697Z,100.00
2022-11-21T00:25:24.397Z,100.00
2022-11-21T00:27:52.740Z,100.00
2022-11-21T00:30:19.433Z,100.00
2022-11-21T00:32:46.039Z,100.00
2022-11-21T00:35:13.326Z,100.00
2022-11-21T00:37:40.099Z,100.00
2022-11-21T00:40:07.260Z,100.00
2022-11-21T00:42:33.902Z,100.00
2022-11-21T00:45:00.594Z,100.00
2022-11-21T00:47:27.182Z,100.00
2022-11-21T00:49:53.755Z,100.00
2022-11-21T00:52:20.328Z,100.00
2022-11-21T00:54:46.904Z,100.00
2022-11-21T00:57:13.555Z,100.00
2022-11-21T00:59:40.187Z,100.00
2022-11-21T01:02:07.017Z,100.00
2022-11-21T01:04:35.202Z,100.00
2022-11-21T01:07:01.875Z,100.00
2022-11-21T01:09:28.785Z,100.00
2022-11-21T01:11:56.594Z,100.00
2022-11-21T01:14:23.537Z,100.00
2022-11-21T01:16:50.889Z,100.00
2022-11-21T01:19:17.746Z,100.00
2022-11-21T01:21:44.370Z,100.00
2022-11-21T01:24:12.341Z,100.00
2022-11-21T01:26:39.257Z,100.00
2022-11-21T01:29:07.272Z,100.00
2022-11-21T01:31:33.970Z,100.00
2022-11-21T01:34:00.898Z,100.00
2022-11-21T01:36:32.825Z,100.00
2022-11-21T01:39:01.745Z,100.00
2022-11-21T01:41:33.610Z,100.00
2022-11-21T01:44:13.828Z,100.00
2022-11-21T01:46:40.426Z,100.00
2022-11-21T01:49:11.080Z,100.00
2022-11-21T01:51:43.249Z,100.00
2022-11-21T01:54:18.532Z,100.00
2022-11-21T01:57:04.712Z,100.00
2022-11-21T01:59:39.947Z,100.00
2022-11-21T02:02:10.781Z,100.00
2022-11-21T02:04:39.040Z,100.00
2022-11-21T02:07:07.058Z,100.00
2022-11-21T02:09:37.407Z,100.00
2022-11-21T02:12:21.723Z,100.00
2022-11-21T02:14:48.539Z,100.00
2022-11-21T02:17:18.958Z,100.00
2022-11-21T02:20:01.700Z,100.00
2022-11-21T02:22:39.118Z,100.00
2022-11-21T02:25:11.757Z,100.00
2022-11-21T02:27:39.157Z,100.00
2022-11-21T02:30:08.571Z,100.00
2022-11-21T02:32:48.442Z,100.00
2022-11-21T02:35:17.561Z,100.00
2022-11-21T02:37:47.399Z,100.00
2022-11-21T02:40:25.520Z,100.00
2022-11-21T02:43:13.164Z,100.00
2022-11-21T02:45:42.511Z,100.00
2022-11-21T02:48:09.928Z,100.00
2022-11-21T02:50:39.548Z,100.00
2022-11-21T02:53:08.976Z,100.00
2022-11-21T02:55:35.612Z,100.00
2022-11-21T02:58:05.190Z,100.00
2022-11-21T03:00:33.903Z,100.00
2022-11-21T03:03:00.526Z,100.00
2022-11-21T03:05:27.643Z,100.00
2022-11-21T03:07:54.300Z,100.00
2022-11-21T03:10:20.905Z,100.00
2022-11-21T03:12:47.601Z,100.00
2022-11-21T03:15:16.258Z,100.00
2022-11-21T03:17:43.528Z,100.00
2022-11-21T03:20:10.691Z,100.00
2022-11-21T03:22:37.310Z,100.00
2022-11-21T03:25:04.177Z,100.00
2022-11-21T03:27:31.010Z,100.00
2022-11-21T03:29:57.614Z,100.00
2022-11-21T03:32:24.274Z,100.00
2022-11-21T03:34:50.854Z,100.00
2022-11-21T03:37:17.462Z,100.00
2022-11-21T03:39:44.053Z,100.00
2022-11-21T03:42:10.672Z,100.00
2022-11-21T03:44:37.251Z,100.00
2022-11-21T03:47:03.937Z,100.00
2022-11-21T03:49:30.519Z,100.00
2022-11-21T03:51:57.100Z,100.00
2022-11-21T03:54:23.689Z,100.00
2022-11-21T03:56:50.251Z,100.00
2022-11-21T03:59:16.869Z,100.00
2022-11-21T04:01:43.502Z,100.00
2022-11-21T04:04:10.150Z,100.00
2022-11-21T04:06:36.734Z,100.00
2022-11-21T04:09:03.691Z,100.00
2022-11-21T04:11:30.255Z,100.00
2022-11-21T04:13:56.874Z,100.00
2022-11-21T04:16:23.455Z,100.00
2022-11-21T04:18:50.661Z,100.00
2022-11-21T04:21:17.332Z,100.00
2022-11-21T04:23:44.086Z,100.00
2022-11-21T04:26:11.119Z,100.00
2022-11-21T04:28:38.263Z,100.00
2022-11-21T04:31:10.332Z,100.00
2022-11-21T04:33:39.257Z,100.00
2022-11-21T04:36:08.224Z,100.00
2022-11-21T04:38:34.834Z,100.00
2022-11-21T04:41:01.448Z,100.00
2022-11-21T04:43:28.079Z,100.00
2022-11-21T04:45:54.665Z,100.00
2022-11-21T04:48:21.279Z,100.00
2022-11-21T04:50:47.897Z,100.00
2022-11-21T04:53:14.540Z,100.00
2022-11-21T04:55:41.126Z,100.00
2022-11-21T04:58:07.723Z,100.00
2022-11-21T05:00:34.775Z,100.00
2022-11-21T05:03:05.828Z,100.00
2022-11-21T05:05:33.357Z,100.00
2022-11-21T05:08:00.578Z,100.00
2022-11-21T05:10:27.266Z,100.00
2022-11-21T05:13:19.080Z,100.00
2022-11-21T05:15:46.228Z,100.00
2022-11-21T05:18:13.126Z,100.00
2022-11-21T05:20:39.793Z,100.00
2022-11-21T05:23:06.650Z,100.00
2022-11-21T05:25:33.393Z,100.00
2022-11-21T05:28:00.020Z,100.00
2022-11-21T05:30:26.672Z,100.00
2022-11-21T05:32:53.385Z,100.00
2022-11-21T05:35:20.072Z,100.00
2022-11-21T05:37:46.802Z,100.00
2022-11-21T05:40:13.493Z,100.00
2022-11-21T05:43:01.114Z,100.00
2022-11-21T05:45:27.746Z,100.00
2022-11-21T05:47:54.315Z,100.00
2022-11-21T05:50:20.914Z,100.00
2022-11-21T05:52:47.527Z,100.00
2022-11-21T05:55:14.150Z,100.00
2022-11-21T05:57:41.294Z,100.00
2022-11-21T06:00:08.719Z,100.00
2022-11-21T06:02:53.659Z,100.00
2022-11-21T06:05:20.484Z,100.00
2022-11-21T06:07:47.137Z,100.00
2022-11-21T06:10:13.767Z,100.00
2022-11-21T06:12:40.332Z,100.00
2022-11-21T06:15:07.532Z,100.00
2022-11-21T06:17:34.097Z,100.00
2022-11-21T06:20:00.811Z,100.00
2022-11-21T06:22:27.498Z,100.00
2022-11-21T06:24:54.109Z,100.00
2022-11-21T06:27:20.759Z,100.00
2022-11-21T06:29:47.346Z,100.00
2022-11-21T06:32:14.059Z,100.00
2022-11-21T06:34:40.753Z,100.00
2022-11-21T06:37:07.520Z,100.00
2022-11-21T06:39:34.175Z,100.00
2022-11-21T06:42:01.862Z,100.00
2022-11-21T06:44:28.837Z,100.00
2022-11-21T06:46:55.675Z,100.00
2022-11-21T06:49:22.363Z,100.00
2022-11-21T06:51:49.027Z,100.00
2022-11-21T06:54:17.026Z,100.00
2022-11-21T06:56:44.196Z,100.00
2022-11-21T06:59:10.935Z,100.00
2022-11-21T07:01:37.730Z,100.00
2022-11-21T07:04:04.718Z,100.00
2022-11-21T07:06:31.360Z,100.00
2022-11-21T07:09:30.914Z,100.00
2022-11-21T07:11:44.613Z,100.00
2022-11-21T07:14:11.312Z,100.00
2022-11-21T07:16:38.155Z,100.00
2022-11-21T07:19:04.791Z,100.00
2022-11-21T07:21:31.350Z,100.00
2022-11-21T07:23:57.936Z,100.00
2022-11-21T07:26:24.522Z,100.00
2022-11-21T07:28:51.110Z,100.00
2022-11-21T07:31:17.745Z,100.00
2022-11-21T07:33:44.422Z,100.00
2022-11-21T07:36:12.180Z,100.00
2022-11-21T07:38:38.881Z,100.00
2022-11-21T07:41:05.463Z,100.00
2022-11-21T07:43:32.112Z,100.00
2022-11-21T07:45:58.727Z,100.00
2022-11-21T07:48:25.358Z,100.00
2022-11-21T07:50:51.996Z,99.93
2022-11-21T07:53:18.642Z,99.11
2022-11-21T07:55:45.281Z,98.23
2022-11-21T07:58:13.448Z,98.05
2022-11-21T08:00:44.507Z,97.77
2022-11-21T08:03:12.938Z,97.64
2022-11-21T08:05:41.727Z,97.24
2022-11-21T08:08:09.709Z,96.07
2022-11-21T08:10:41.148Z,95.08
2022-11-21T08:13:07.773Z,95.30
2022-11-21T08:15:34.380Z,96.55
2022-11-21T08:18:11.927Z,98.11
2022-11-21T08:20:38.981Z,98.72
2022-11-21T08:23:06.678Z,98.30
2022-11-21T08:25:43.298Z,96.75
2022-11-21T08:28:11.751Z,95.86
2022-11-21T08:30:40.216Z,95.49
2022-11-21T08:33:07.302Z,96.00
2022-11-21T08:35:37.102Z,94.99
2022-11-21T08:38:04.263Z,91.95
2022-11-21T08:40:31.919Z,91.61
2022-11-21T08:43:00.104Z,91.40
2022-11-21T08:45:26.812Z,92.03
2022-11-21T08:47:54.351Z,91.21
2022-11-21T08:50:22.845Z,90.47
2022-11-21T08:52:49.508Z,90.02
2022-11-21T08:55:16.155Z,89.21
2022-11-21T08:57:43.090Z,89.27
2022-11-21T09:00:14.490Z,88.19
2022-11-21T09:02:41.155Z,86.95
2022-11-21T09:05:08.591Z,87.90
2022-11-21T09:07:35.813Z,85.92
2022-11-21T09:10:02.477Z,85.48
2022-11-21T09:12:29.102Z,85.42
2022-11-21T09:15:14.071Z,84.20
2022-11-21T09:17:59.118Z,84.02
2022-11-21T09:20:26.211Z,84.80
2022-11-21T09:22:53.141Z,84.40
2022-11-21T09:25:19.981Z,84.44
2022-11-21T09:27:47.026Z,84.22
2022-11-21T09:30:14.154Z,84.82
2022-11-21T09:32:41.421Z,83.86
2022-11-21T09:35:08.858Z,84.70
2022-11-21T09:37:38.375Z,84.53
2022-11-21T09:40:05.952Z,83.93
2022-11-21T09:42:44.607Z,83.06
2022-11-21T09:45:18.307Z,81.66
2022-11-21T09:47:48.735Z,81.41
2022-11-21T09:50:15.283Z,81.29
2022-11-21T09:52:49.618Z,80.51
2022-11-21T09:55:34.904Z,80.52
2022-11-21T09:58:11.310Z,80.10
2022-11-21T10:00:37.981Z,81.47
2022-11-21T10:03:04.710Z,80.58
2022-11-21T10:05:43.798Z,81.18
2022-11-21T10:08:24.937Z,80.69
2022-11-21T10:10:58.462Z,79.40
2022-11-21T10:13:40.310Z,79.51
2022-11-21T10:16:13.126Z,80.61
2022-11-21T10:18:59.571Z,80.21
2022-11-21T10:21:56.500Z,79.64
2022-11-21T10:24:33.113Z,79.05
2022-11-21T10:27:13.908Z,78.18
2022-11-21T10:29:53.162Z,78.48
2022-11-21T10:32:46.011Z,77.97
2022-11-21T10:35:17.789Z,77.36
2022-11-21T10:37:52.408Z,77.65
2022-11-21T10:40:40.004Z,77.57
2022-11-21T10:43:37.484Z,76.60
2022-11-21T10:46:04.095Z,77.34
2022-11-21T10:48:30.668Z,78.26
2022-11-21T10:51:06.141Z,78.93
2022-11-21T10:53:51.780Z,79.04
2022-11-21T10:56:21.819Z,78.78
2022-11-21T10:58:51.092Z,79.11
2022-11-21T11:01:21.983Z,79.92
2022-11-21T11:06:57.467Z,80.12
2022-11-21T11:09:34.526Z,79.30
2022-11-21T11:12:23.269Z,78.88
2022-11-21T11:14:54.822Z,79.92
2022-11-21T11:17:33.500Z,78.75
2022-11-21T11:20:26.224Z,79.10
2022-11-21T11:22:52.814Z,78.84
2022-11-21T11:25:19.378Z,79.12
2022-11-21T11:27:45.970Z,78.84
2022-11-21T11:30:16.547Z,78.19
2022-11-21T11:32:43.402Z,77.75
2022-11-21T11:35:12.883Z,78.55
2022-11-21T11:37:41.910Z,78.43
2022-11-21T11:40:30.290Z,76.71
2022-11-21T11:43:30.602Z,76.92
2022-11-21T11:46:24.704Z,75.57
2022-11-21T11:49:17.911Z,75.81
2022-11-21T11:51:55.121Z,74.87
2022-11-21T11:54:45.332Z,74.69
2022-11-21T11:57:13.854Z,74.73
2022-11-21T11:59:48.331Z,74.60
2022-11-21T12:02:25.352Z,74.58
2022-11-21T12:05:05.429Z,74.60
2022-11-21T12:10:33.759Z,73.40
2022-11-21T12:13:11.250Z,72.84
2022-11-21T12:15:50.251Z,73.12
2022-11-21T12:18:19.644Z,72.58
2022-11-21T12:21:15.274Z,70.33
2022-11-21T12:23:54.959Z,70.94
2022-11-21T12:26:43.618Z,69.77
2022-11-21T12:29:20.355Z,71.23
2022-11-21T12:32:05.594Z,70.99
2022-11-21T12:34:59.989Z,69.90
2022-11-21T12:37:50.864Z,69.97
2022-11-21T12:40:54.942Z,70.71
2022-11-21T12:43:51.843Z,71.28
2022-11-21T12:46:27.964Z,70.97
2022-11-21T12:49:16.435Z,70.79
2022-11-21T12:52:07.105Z,72.52
2022-11-21T12:54:49.546Z,71.24
2022-11-21T12:57:18.513Z,70.99
2022-11-21T12:59:47.719Z,71.03
2022-11-21T13:02:20.182Z,72.88
2022-11-21T13:04:51.151Z,72.25
2022-11-21T13:07:19.444Z,72.00
2022-11-21T13:09:50.974Z,73.43
2022-11-21T13:12:32.220Z,73.04
2022-11-21T13:15:13.954Z,72.39
2022-11-21T13:17:56.128Z,72.53
2022-11-21T13:20:23.671Z,71.42
2022-11-21T13:22:51.395Z,70.64
2022-11-21T13:25:33.073Z,69.05
2022-11-21T13:28:12.011Z,71.17
2022-11-21T13:30:52.179Z,72.62
2022-11-21T13:33:39.530Z,70.27
2022-11-21T13:36:32.199Z,71.37
2022-11-21T13:38:58.821Z,72.88
2022-11-21T13:41:53.255Z,70.29
2022-11-21T13:44:34.379Z,69.75
2022-11-21T13:47:05.072Z,70.51
2022-11-21T13:49:36.772Z,72.34
2022-11-21T13:52:32.701Z,72.19
2022-11-21T13:55:28.274Z,70.85
2022-11-21T13:58:11.868Z,71.41
2022-11-21T14:01:03.349Z,71.81
2022-11-21T14:04:06.172Z,71.71
2022-11-21T14:06:43.300Z,73.08
2022-11-21T14:09:12.992Z,73.09
2022-11-21T14:12:02.075Z,74.13
2022-11-21T14:14:51.110Z,72.84
2022-11-21T14:17:34.187Z,73.33
2022-11-21T14:20:13.628Z,72.33
2022-11-21T14:22:54.258Z,72.20
2022-11-21T14:25:25.163Z,74.63
2022-11-21T14:27:54.770Z,75.45
2022-11-21T14:30:39.560Z,75.11
2022-11-21T14:33:24.571Z,76.58
2022-11-21T14:35:59.280Z,76.62
2022-11-21T14:38:27.523Z,77.09
2022-11-21T14:41:23.294Z,77.16
2022-11-21T14:44:03.348Z,77.99
2022-11-21T14:46:38.788Z,79.07
2022-11-21T14:49:17.306Z,80.31
2022-11-21T14:52:06.252Z,81.05
2022-11-21T14:54:39.549Z,81.71
2022-11-21T14:57:07.852Z,81.99
2022-11-21T14:59:44.386Z,82.50
2022-11-21T15:02:22.568Z,82.32
2022-11-21T15:04:51.034Z,82.69
2022-11-21T15:07:31.587Z,82.72
2022-11-21T15:10:33.777Z,83.52
2022-11-21T15:12:55.698Z,83.01
2022-11-21T15:15:28.655Z,83.84
2022-11-21T15:20:54.208Z,83.53
2022-11-21T15:23:35.795Z,84.30
2022-11-21T15:26:02.955Z,85.03
2022-11-21T15:28:30.621Z,85.38
2022-11-21T15:31:16.669Z,85.18
2022-11-21T15:34:27.671Z,85.01
2022-11-21T15:37:03.500Z,84.32
2022-11-21T15:39:30.428Z,83.83
2022-11-21T15:42:32.015Z,84.51
2022-11-21T15:45:23.846Z,84.75
2022-11-21T15:47:50.512Z,85.13
2022-11-21T15:50:17.139Z,86.29
2022-11-21T15:52:48.963Z,86.92
2022-11-21T15:55:21.439Z,87.71
2022-11-21T15:57:14.938Z,84.26
2022-11-21T15:57:48.332Z,87.37
2022-11-21T16:00:15.477Z,87.97
2022-11-21T16:02:42.095Z,89.05
2022-11-21T16:05:14.091Z,89.09
2022-11-21T16:07:41.908Z,89.98
2022-11-21T16:10:17.175Z,90.11
2022-11-21T16:12:49.377Z,90.02
2022-11-21T16:15:16.022Z,90.63
2022-11-21T16:17:42.614Z,90.29
2022-11-21T16:20:09.547Z,90.21
2022-11-21T16:22:36.134Z,90.66
2022-11-21T16:25:02.838Z,91.00
2022-11-21T16:27:29.610Z,91.81
2022-11-21T16:29:56.209Z,92.00
2022-11-21T16:32:25.286Z,91.89
2022-11-21T16:34:52.068Z,91.02
2022-11-21T16:37:18.674Z,90.35
2022-11-21T16:39:51.782Z,90.48
2022-11-21T16:42:19.559Z,91.46
2022-11-21T16:44:46.199Z,91.18
2022-11-21T16:47:14.244Z,92.30
2022-11-21T16:49:48.183Z,91.34
2022-11-21T16:52:15.865Z,91.87
2022-11-21T16:54:42.494Z,92.21
2022-11-21T16:57:09.470Z,90.75
2022-11-21T16:59:36.346Z,90.47
2022-11-21T17:02:03.013Z,90.66
2022-11-21T17:04:29.980Z,91.30
2022-11-21T17:06:57.075Z,91.31
2022-11-21T17:09:23.656Z,91.57
2022-11-21T17:11:50.374Z,91.35
2022-11-21T17:14:17.006Z,90.78
2022-11-21T17:16:43.663Z,90.62
2022-11-21T17:19:12.378Z,89.86
2022-11-21T17:21:39.197Z,90.18
2022-11-21T17:24:06.041Z,90.67
2022-11-21T17:26:36.668Z,91.89
2022-11-21T17:29:04.931Z,90.69
2022-11-21T17:31:32.086Z,91.09
2022-11-21T17:34:00.823Z,91.55
2022-11-21T17:36:29.729Z,91.83
2022-11-21T17:38:56.703Z,92.30
2022-11-21T17:41:24.882Z,92.89
2022-11-21T17:43:58.302Z,92.85
2022-11-21T17:46:26.082Z,92.96
2022-11-21T17:48:58.463Z,92.47
2022-11-21T17:51:34.299Z,93.42
2022-11-21T17:54:01.922Z,93.25
2022-11-21T17:56:30.792Z,92.90
2022-11-21T17:58:57.801Z,93.42
2022-11-21T18:01:25.482Z,92.89
2022-11-21T18:03:56.706Z,92.91
2022-11-21T18:06:24.788Z,93.29
2022-11-21T18:08:51.701Z,93.40
2022-11-21T18:11:21.440Z,92.96
2022-11-21T18:13:49.437Z,92.45
2022-11-21T18:16:22.270Z,91.98
2022-11-21T18:18:49.724Z,91.78
2022-11-21T18:21:19.375Z,91.09
2022-11-21T18:23:47.151Z,91.53
2022-11-21T18:26:23.231Z,91.19
2022-11-21T18:29:13.093Z,92.17
2022-11-21T18:31:38.063Z,91.64
2022-11-21T18:34:06.769Z,91.67
2022-11-21T18:36:33.646Z,91.41
2022-11-21T18:39:07.259Z,91.70
2022-11-21T18:41:38.867Z,91.77
2022-11-21T18:44:06.717Z,91.92
2022-11-21T18:46:35.899Z,92.14
2022-11-21T18:49:06.519Z,91.65
2022-11-21T18:51:35.048Z,91.80
2022-11-21T18:54:10.509Z,92.23
2022-11-21T18:56:39.042Z,91.45
2022-11-21T18:59:06.534Z,91.87
2022-11-21T19:01:35.546Z,91.81
2022-11-21T19:04:02.366Z,91.72
2022-11-21T19:06:29.420Z,91.88
2022-11-21T19:08:57.691Z,90.54
2022-11-21T19:11:29.710Z,90.76
2022-11-21T19:13:57.589Z,91.09
2022-11-21T19:16:25.973Z,90.75
2022-11-21T19:21:41.616Z,91.48
2022-11-21T19:24:15.076Z,90.59
2022-11-21T19:26:42.350Z,90.35
2022-11-21T19:29:09.833Z,89.44
2022-11-21T19:31:42.628Z,89.32
2022-11-21T19:34:11.339Z,89.09
2022-11-21T19:36:39.394Z,89.30
2022-11-21T19:39:06.003Z,89.27
2022-11-21T19:41:32.569Z,88.89
2022-11-21T19:44:00.538Z,88.56
2022-11-21T19:46:31.347Z,88.18
2022-11-21T19:48:59.327Z,87.45
2022-11-21T19:51:35.630Z,88.01
2022-11-21T19:54:03.496Z,87.29
2022-11-21T19:56:30.140Z,86.88
2022-11-21T19:58:57.401Z,86.91
2022-11-21T20:01:26.168Z,86.49
2022-11-21T20:03:58.529Z,85.68
2022-11-21T20:06:46.523Z,84.68
2022-11-21T20:09:18.748Z,85.72
2022-11-21T20:11:47.277Z,84.43
2022-11-21T20:14:21.092Z,86.51
2022-11-21T20:16:49.362Z,86.60
2022-11-21T20:19:18.127Z,88.76
2022-11-21T20:21:45.742Z,88.54
2022-11-21T20:24:12.778Z,88.95
2022-11-21T20:26:40.519Z,91.46
2022-11-21T20:29:07.174Z,91.29
2022-11-21T20:31:37.085Z,92.16
2022-11-21T20:34:10.097Z,93.83
2022-11-21T20:36:36.836Z,95.46
2022-11-21T20:39:21.883Z,95.73
2022-11-21T20:41:48.674Z,97.43
2022-11-21T20:47:08.383Z,98.08
2022-11-21T20:49:35.182Z,98.94
2022-11-21T20:54:48.360Z,100.00
2022-11-21T20:57:15.699Z,100.00
2022-11-21T20:59:42.972Z,100.00
2022-11-21T21:02:12.341Z,100.00
2022-11-21T21:04:39.300Z,100.00
2022-11-21T21:07:05.943Z,100.00
2022-11-21T21:09:32.581Z,100.00
2022-11-21T21:11:59.177Z,100.00
2022-11-21T21:14:25.752Z,100.00
2022-11-21T21:16:52.366Z,100.00
2022-11-21T21:19:19.455Z,100.00
2022-11-21T21:21:46.102Z,100.00
2022-11-21T21:24:13.931Z,100.00
2022-11-21T21:26:43.936Z,100.00
2022-11-21T21:29:12.819Z,100.00
2022-11-21T21:31:40.238Z,100.00
2022-11-21T21:34:10.080Z,100.00
2022-11-21T21:36:36.835Z,100.00
2022-11-21T21:39:04.128Z,100.00
2022-11-21T21:41:31.767Z,100.00
2022-11-21T21:43:59.448Z,100.00
2022-11-21T21:46:27.861Z,100.00
2022-11-21T21:48:58.178Z,100.00
2022-11-21T21:51:26.765Z,100.00
2022-11-21T21:53:55.184Z,100.00
2022-11-21T21:56:22.806Z,100.00
2022-11-21T21:58:50.119Z,100.00
2022-11-21T22:01:18.103Z,100.00
2022-11-21T22:03:46.235Z,100.00
2022-11-21T22:06:15.805Z,100.00
2022-11-21T22:08:43.484Z,100.00
2022-11-21T22:11:15.697Z,100.00
2022-11-21T22:13:44.468Z,100.00
2022-11-21T22:16:12.597Z,100.00
2022-11-21T22:18:40.536Z,100.00
2022-11-21T22:21:25.464Z,100.00
2022-11-21T22:26:39.031Z,100.00
2022-11-21T22:29:06.415Z,100.00
2022-11-21T22:31:33.291Z,100.00
2022-11-21T22:34:00.516Z,100.00
2022-11-21T22:36:27.181Z,100.00
2022-11-21T22:38:54.977Z,100.00
2022-11-21T22:41:24.055Z,100.00
2022-11-21T22:43:53.411Z,100.00
2022-11-21T22:46:20.542Z,100.00
2022-11-21T22:48:48.110Z,100.00
2022-11-21T22:51:17.956Z,100.00
2022-11-21T22:53:46.515Z,100.00
2022-11-21T22:56:15.127Z,100.00
2022-11-21T22:58:41.763Z,100.00
2022-11-21T23:01:15.671Z,100.00
2022-11-21T23:03:43.762Z,100.00
2022-11-21T23:06:12.563Z,100.00
2022-11-21T23:08:39.907Z,100.00
2022-11-21T23:11:11.859Z,100.00
2022-11-21T23:13:40.318Z,100.00
2022-11-21T23:16:08.126Z,100.00
2022-11-21T23:18:35.282Z,100.00
2022-11-21T23:21:02.966Z,100.00
2022-11-21T23:23:30.540Z,100.00
2022-11-21T23:25:57.144Z,100.00
2022-11-21T23:28:23.735Z,100.00
2022-11-21T23:30:50.705Z,100.00
2022-11-21T23:33:18.572Z,100.00
2022-11-21T23:35:46.238Z,100.00
2022-11-21T23:38:14.611Z,100.00
2022-11-21T23:40:41.445Z,100.00
2022-11-21T23:43:08.137Z,100.00
2022-11-21T23:45:34.774Z,100.00
2022-11-21T23:48:01.334Z,100.00
2022-11-21T23:50:27.943Z,100.00
2022-11-21T23:52:54.529Z,100.00
2022-11-21T23:55:21.182Z,100.00
2022-11-21T23:57:48.882Z,100.00
